Monday, January 21, 2019, 5:10 PM EST
Back to Local

KHYA, Hyannis Barnstable Boardmn

Location: West Yarmouth, MA, United States Lat: 41.667
Local Time: 5:10 PM EST (22:10 GMT) Lon: -70.267
Time Zone: US/Eastern Elev: 52 ft

Show me the last for .
Show Decoded

2019-01-21 16:53 METAR KHYA 212153Z 29010G19KT 2 1/2SM -SN SCT023 OVC040 M14/M19 A2985 RMK AO2
                 SNB2058 P0000 =
2019-01-21 16:23 METAR KHYA 212123Z 28010G21KT 260V320 4SM -SN BKN028 OVC042 M14/M19 A2983 RMK
                 AO2 SNB2058 P0000 T11441194 =
2019-01-21 16:20 METAR KHYA 212120Z 28014G21KT 1 3/4SM -SN SCT028 OVC042 M14/M20 A2983 RMK AO2
                 VIS 3/4V5 SNB2058 P0000 T11391200 =
2019-01-21 15:56 METAR KHYA 212056Z 28014G26KT 4SM HZ OVC036 M14/M21 A2981 RMK AO2 PK WND
                 29026/2051 SNB36E53 SLP097 P0000 60000 T11391211 51019 =
2019-01-21 15:51 METAR KHYA 212051Z 30017G26KT 5SM -SN OVC036 M14/M22 A2981 RMK AO2 PK WND
                 29026/2051 SNB36 P0000 =
2019-01-21 15:44 METAR KHYA 212044Z 28013G22KT 2SM -SN FEW025 OVC037 M14/M21 A2980 RMK AO2 VIS 1
                 1/2V5 SNB36 P0000 T11391206 =
2019-01-21 14:56 METAR KHYA 211956Z 30010G18KT 9SM OVC036 M13/M21 A2978 RMK AO2 SLP085 T11281211
                 =
2019-01-21 13:56 METAR KHYA 211856Z 29011G19KT 250V330 10SM FEW027 BKN032 M12/M21 A2976 RMK AO2
                 SLP078 T11221211 =
2019-01-21 12:56 METAR KHYA 211756Z 28012G17KT 10SM SCT033 M13/M21 A2975 RMK AO2 SLP076 T11281211
                 11122 21150 58001 =
2019-01-21 11:56 METAR KHYA 211656Z 30011G16KT 10SM BKN034 M12/M21 A2976 RMK AO2 SLP078 T11221206
                 =
2019-01-21 10:56 METAR KHYA 211556Z 29014G19KT 10SM FEW028 SCT033 M13/M21 A2977 RMK AO2 SLP082
                 T11331211 =
2019-01-21 09:56 METAR KHYA 211456Z 30011G20KT 10SM CLR M13/M21 A2975 RMK AO2 SLP077 T11331211
                 51031 =
2019-01-21 08:56 METAR KHYA 211356Z 29011G20KT 10SM CLR M14/M22 A2973 RMK AO2 SLP070 T11441217 =
2019-01-21 07:56 METAR KHYA 211256Z 28013G18KT 10SM CLR M15/M22 A2970 RMK AO2 SLP058 T11501217 =
2019-01-21 06:56 METAR KHYA 211156Z 29011G20KT 10SM CLR M15/M21 A2966 RMK AO2 SLP046 70156
                 T11501211 11111 21150 53027 =
2019-01-21 05:56 METAR KHYA 211056Z 29012G18KT 10SM CLR M14/M21 A2962 RMK AO2 SLP033 T11441211 =
2019-01-21 04:56 METAR KHYA 210956Z AUTO 29012G20KT 10SM CLR M14/M21 A2961 RMK AO2 SLP028
                 T11391206 =
2019-01-21 03:56 METAR KHYA 210856Z AUTO 30012G20KT 10SM CLR M14/M20 A2958 RMK AO2 SLP019
                 T11391200 51030 =
2019-01-21 02:56 METAR KHYA 210756Z AUTO 30012G18KT 10SM CLR M13/M19 A2956 RMK AO2 PK WND
                 28027/0707 SLP010 T11331194 =
2019-01-21 01:56 METAR KHYA 210656Z AUTO 29015G26KT 10SM CLR M13/M19 A2953 RMK AO2 PK WND
                 29027/0607 SLP001 T11281189 =
2019-01-21 00:56 METAR KHYA 210556Z AUTO 29009G20KT 10SM CLR M11/M17 A2949 RMK AO2 SLP989 60000
                 I6000 T11111167 11017 21111 51037 =
2019-01-21 00:18 METAR KHYA 210518Z AUTO 30014G24KT 260V330 10SM FEW023 M11/M16 A2949 RMK AO2
                 T11061161 =
2019-01-20 23:56 METAR KHYA 210456Z AUTO 29011G22KT 260V320 10SM BKN023 M09/M14 A2948 RMK AO2
                 SLP984 T10941144 401221094 =
2019-01-20 23:49 METAR KHYA 210449Z AUTO 29014G22KT 10SM BKN023 M09/M14 A2948 RMK AO2 T10891139 =
2019-01-20 23:17 METAR KHYA 210417Z AUTO 30010G18KT 10SM SCT025 M08/M13 A2944 RMK AO2 T10781128 =
2019-01-20 22:56 METAR KHYA 210356Z AUTO 29009G19KT 260V340 10SM OVC024 M07/M12 A2942 RMK AO2
                 SLP966 T10671117 =
2019-01-20 21:56 METAR KHYA 210256Z 28012G20KT 10SM BKN021 OVC031 M04/M08 A2938 RMK AO2 SLP951
                 60000 I3000 T10441083 51042 =
2019-01-20 20:56 METAR KHYA 210156Z 31015G22KT 10SM OVC017 M03/M06 A2935 RMK AO2 SLP939 T10281061
                 =
2019-01-20 19:56 METAR KHYA 210056Z 33014G23KT 10SM BKN012 OVC017 M02/M05 A2930 RMK AO2 PK WND
                 33028/0004 FZRAE24 SLP923 P0000 I1000 T10221050 =
2019-01-20 19:26 METAR KHYA 210026Z 32012G23KT 5SM BR OVC005 M03/M04 A2928 RMK AO2 PK WND
                 33028/0004 FZRAE24 CIG 004V009 P0000 I1000 T10281044 =
2019-01-20 18:56 METAR KHYA 202356Z 34016G24KT 2SM -FZRA BR OVC005 M02/M03 A2926 RMK AO2 PK WND
                 35027/2337 SLP909 P0000 60056 I1002 I6003 T10171033 10106 21028 51044 =
2019-01-20 18:05 METAR KHYA 202305Z 33013G25KT 2 1/2SM -FZRA BR OVC004 M03/M04 A2924 RMK AO2
                 P0000 I1000 T10281044 =
2019-01-20 17:56 METAR KHYA 202256Z 33016G25KT 2 1/2SM -FZRA BR OVC005 M03/M04 A2924 RMK AO2 PK
                 WND 35031/2245 UPE10FZRAB10 SLP901 P0000 I1001 T10281039 =
2019-01-20 17:16 METAR KHYA 202216Z 36019G26KT 1 3/4SM -FZRA BR OVC005 M02/M04 A2921 RMK AO2 PK
                 WND 34027/2206 UPE10FZRAB10 P0000 I1000 T10221039 =

Support USWX by starting your Amazon purchase here.